createdAt,value
2019-05-01T00:00:18.413Z,2.65
2019-05-01T00:02:47.099Z,2.20
2019-05-01T00:05:15.994Z,2.95
2019-05-01T00:07:44.731Z,2.08
2019-05-01T00:10:14.149Z,4.67
2019-05-01T00:12:42.808Z,3.77
2019-05-01T00:15:13.430Z,3.27
2019-05-01T00:17:42.355Z,3.37
2019-05-01T00:20:11.382Z,2.95
2019-05-01T00:22:40.215Z,3.08
2019-05-01T00:25:08.942Z,3.30
2019-05-01T00:27:37.549Z,2.72
2019-05-01T00:30:07.245Z,2.42
2019-05-01T00:32:35.901Z,2.60
2019-05-01T00:35:06.318Z,2.65
2019-05-01T00:37:34.980Z,3.08
2019-05-01T00:40:05.482Z,4.20
2019-05-01T00:42:34.148Z,3.50
2019-05-01T00:45:03.551Z,3.17
2019-05-01T00:47:32.203Z,3.00
2019-05-01T00:50:00.859Z,4.20
2019-05-01T00:52:29.686Z,2.60
2019-05-01T00:54:58.295Z,2.42
2019-05-01T00:57:26.955Z,3.70
2019-05-01T00:59:55.571Z,3.85
2019-05-01T01:02:24.224Z,2.75
2019-05-01T01:04:52.838Z,2.75
2019-05-01T01:07:21.443Z,2.37
2019-05-01T01:09:50.105Z,2.62
2019-05-01T01:12:18.717Z,2.33
2019-05-01T01:14:47.361Z,3.52
2019-05-01T01:17:16.036Z,2.17
2019-05-01T01:19:44.700Z,2.60
2019-05-01T01:22:13.361Z,1.82
2019-05-01T01:24:42.042Z,2.20
2019-05-01T01:27:10.701Z,2.72
2019-05-01T01:29:39.380Z,2.37
2019-05-01T01:32:08.116Z,3.35
2019-05-01T01:34:36.848Z,2.50
2019-05-01T01:37:05.506Z,3.60
2019-05-01T01:39:34.168Z,2.87
2019-05-01T01:42:03.019Z,2.90
2019-05-01T01:44:31.735Z,2.85
2019-05-01T01:47:00.417Z,5.72
2019-05-01T01:49:29.413Z,3.37
2019-05-01T01:51:58.358Z,2.70
2019-05-01T01:54:27.290Z,3.12
2019-05-01T01:56:56.688Z,3.08
2019-05-01T01:59:25.818Z,2.85
2019-05-01T02:01:54.644Z,3.60
2019-05-01T02:04:23.375Z,2.77
2019-05-01T02:06:52.051Z,3.42
2019-05-01T02:09:20.773Z,2.98
2019-05-01T02:11:49.776Z,2.80
2019-05-01T02:14:18.435Z,3.58
2019-05-01T02:16:47.096Z,2.90
2019-05-01T02:19:15.709Z,3.20
2019-05-01T02:21:44.371Z,3.87
2019-05-01T02:24:13.053Z,3.40
2019-05-01T02:26:41.821Z,3.75
2019-05-01T02:29:11.166Z,3.72
2019-05-01T02:31:40.302Z,5.10
2019-05-01T02:34:10.111Z,3.90
2019-05-01T02:36:39.361Z,3.58
2019-05-01T02:39:09.616Z,4.20
2019-05-01T02:41:41.921Z,4.50
2019-05-01T02:44:19.811Z,5.12
2019-05-01T02:46:50.516Z,4.42
2019-05-01T02:49:35.536Z,3.30
2019-05-01T02:52:05.966Z,4.78
2019-05-01T02:54:35.724Z,5.40
2019-05-01T02:57:04.869Z,5.50
2019-05-01T02:59:35.561Z,6.92
2019-05-01T03:02:04.763Z,8.78
2019-05-01T03:04:33.859Z,7.67
2019-05-01T03:07:03.753Z,10.78
2019-05-01T03:09:33.382Z,8.85
2019-05-01T03:12:03.582Z,8.28
2019-05-01T03:14:36.320Z,10.63
2019-05-01T03:17:06.207Z,9.43
2019-05-01T03:19:35.438Z,10.60
2019-05-01T03:22:05.108Z,8.43
2019-05-01T03:24:34.347Z,10.08
2019-05-01T03:27:03.565Z,9.63
2019-05-01T03:29:32.395Z,8.60
2019-05-01T03:32:16.567Z,9.95
2019-05-01T03:34:32.509Z,9.60
2019-05-01T03:37:01.254Z,8.58
2019-05-01T03:39:30.056Z,10.25
2019-05-01T03:41:59.237Z,10.23
2019-05-01T03:44:27.897Z,11.93
2019-05-01T03:46:57.073Z,9.95
2019-05-01T03:49:26.587Z,11.43
2019-05-01T03:51:55.188Z,9.88
2019-05-01T03:54:24.381Z,10.00
2019-05-01T03:56:53.066Z,10.80
2019-05-01T03:59:21.874Z,11.80
2019-05-01T04:01:50.646Z,13.05
2019-05-01T04:04:19.785Z,11.18
2019-05-01T04:06:49.181Z,11.93
2019-05-01T04:09:18.169Z,11.60
2019-05-01T04:11:46.996Z,12.50
2019-05-01T04:14:15.639Z,12.70
2019-05-01T04:16:44.790Z,14.25
2019-05-01T04:19:13.900Z,13.30
2019-05-01T04:21:42.782Z,16.42
2019-05-01T04:24:11.709Z,13.13
2019-05-01T04:26:40.616Z,14.53
2019-05-01T04:29:09.614Z,12.65
2019-05-01T04:31:38.441Z,13.18
2019-05-01T04:34:07.413Z,12.55
2019-05-01T04:36:36.408Z,12.95
2019-05-01T04:39:07.420Z,12.00
2019-05-01T04:41:36.504Z,13.32
2019-05-01T04:44:05.372Z,14.15
2019-05-01T04:46:34.689Z,13.68
2019-05-01T04:49:04.048Z,12.35
2019-05-01T04:51:32.664Z,16.35
2019-05-01T04:54:01.766Z,14.30
2019-05-01T04:56:30.560Z,14.18
2019-05-01T04:59:00.141Z,15.70
2019-05-01T05:01:28.993Z,15.38
2019-05-01T05:03:58.473Z,13.60
2019-05-01T05:06:27.351Z,13.95
2019-05-01T05:08:56.404Z,13.40
2019-05-01T05:11:25.403Z,16.48
2019-05-01T05:13:54.339Z,15.00
2019-05-01T05:16:23.293Z,15.38
2019-05-01T05:18:52.327Z,14.93
2019-05-01T05:21:21.007Z,15.03
2019-05-01T05:23:50.111Z,14.18
2019-05-01T05:26:19.160Z,15.32
2019-05-01T05:28:50.129Z,16.93
2019-05-01T05:31:19.383Z,16.62
2019-05-01T05:33:49.484Z,17.75
2019-05-01T05:36:19.215Z,15.13
2019-05-01T05:38:48.319Z,15.28
2019-05-01T05:41:18.741Z,16.20
2019-05-01T05:43:47.777Z,16.93
2019-05-01T05:46:17.331Z,17.57
2019-05-01T05:48:46.341Z,17.27
2019-05-01T05:51:16.894Z,18.45
2019-05-01T05:53:48.586Z,15.85
2019-05-01T05:56:19.760Z,16.32
2019-05-01T05:58:50.918Z,16.45
2019-05-01T06:01:21.619Z,17.65
2019-05-01T06:03:53.417Z,16.57
2019-05-01T06:06:26.829Z,16.52
2019-05-01T06:08:59.069Z,17.27
2019-05-01T06:11:33.919Z,17.02
2019-05-01T06:14:02.929Z,17.98
2019-05-01T06:16:33.987Z,21.05
2019-05-01T06:19:02.732Z,17.80
2019-05-01T06:21:34.725Z,20.97
2019-05-01T06:24:06.563Z,17.80
2019-05-01T06:26:37.433Z,19.60
2019-05-01T06:29:04.716Z,19.27
2019-05-01T06:31:33.716Z,18.40
2019-05-01T06:34:02.461Z,20.12
2019-05-01T06:36:31.261Z,19.02
2019-05-01T06:39:00.818Z,18.75
2019-05-01T06:41:33.766Z,21.93
2019-05-01T06:44:02.232Z,20.43
2019-05-01T06:46:30.861Z,19.77
2019-05-01T06:48:59.619Z,20.62
2019-05-01T06:51:28.872Z,20.57
2019-05-01T06:53:57.701Z,21.23
2019-05-01T06:56:27.112Z,19.95
2019-05-01T06:58:56.480Z,20.32
2019-05-01T07:01:25.393Z,20.55
2019-05-01T07:04:03.607Z,21.50
2019-05-01T07:06:26.072Z,21.57
2019-05-01T07:08:55.988Z,21.37
2019-05-01T07:11:24.922Z,21.45
2019-05-01T07:13:55.755Z,23.05
2019-05-01T07:16:24.637Z,20.23
2019-05-01T07:18:53.587Z,19.80
2019-05-01T07:21:22.829Z,23.35
2019-05-01T07:23:53.421Z,18.40
2019-05-01T07:26:22.869Z,19.15
2019-05-01T07:28:51.692Z,20.80
2019-05-01T07:31:20.379Z,21.57
2019-05-01T07:33:51.325Z,23.35
2019-05-01T07:36:19.594Z,20.40
2019-05-01T07:38:48.995Z,19.67
2019-05-01T07:41:17.858Z,21.90
2019-05-01T07:43:46.763Z,22.00
2019-05-01T07:46:18.362Z,24.37
2019-05-01T07:48:46.714Z,23.00
2019-05-01T07:51:15.811Z,21.00
2019-05-01T07:53:45.020Z,22.35
2019-05-01T07:56:16.926Z,22.25
2019-05-01T07:58:47.548Z,22.75
2019-05-01T08:01:18.483Z,23.83
2019-05-01T08:03:46.188Z,23.20
2019-05-01T08:06:16.269Z,20.62
2019-05-01T08:08:45.235Z,20.65
2019-05-01T08:11:13.898Z,20.35
2019-05-01T08:13:42.514Z,21.00
2019-05-01T08:16:11.179Z,21.25
2019-05-01T08:18:39.803Z,23.83
2019-05-01T08:21:08.457Z,24.55
2019-05-01T08:23:37.079Z,24.67
2019-05-01T08:26:08.666Z,26.80
2019-05-01T08:28:36.115Z,24.25
2019-05-01T08:31:04.804Z,27.90
2019-05-01T08:33:33.468Z,25.23
2019-05-01T08:36:02.080Z,27.17
2019-05-01T08:38:34.287Z,25.88
2019-05-01T08:41:01.177Z,26.45
2019-05-01T08:43:29.835Z,28.50
2019-05-01T08:45:58.452Z,27.32
2019-05-01T08:48:30.727Z,24.70
2019-05-01T08:50:59.073Z,26.17
2019-05-01T08:53:27.915Z,26.87
2019-05-01T08:55:56.612Z,26.60
2019-05-01T08:58:25.268Z,26.20
2019-05-01T09:00:53.886Z,29.27
2019-05-01T09:03:22.666Z,29.55
2019-05-01T09:05:52.331Z,30.15
2019-05-01T09:08:21.699Z,31.37
2019-05-01T09:10:54.844Z,34.13
2019-05-01T09:13:23.711Z,29.75
2019-05-01T09:15:51.183Z,31.60
2019-05-01T09:18:19.947Z,30.82
2019-05-01T09:20:48.614Z,29.00
2019-05-01T09:23:17.227Z,29.23
2019-05-01T09:25:45.897Z,29.70
2019-05-01T09:28:14.512Z,31.57
2019-05-01T09:30:43.120Z,31.12
2019-05-01T09:33:11.933Z,29.23
2019-05-01T09:35:45.448Z,30.08
2019-05-01T09:38:11.441Z,34.73
2019-05-01T09:40:40.118Z,35.35
2019-05-01T09:43:08.799Z,30.90
2019-05-01T09:45:38.496Z,32.10
2019-05-01T09:48:07.298Z,32.33
2019-05-01T09:50:35.980Z,29.65
2019-05-01T09:53:05.403Z,33.02
2019-05-01T09:55:34.078Z,30.62
2019-05-01T09:58:02.998Z,32.30
2019-05-01T10:00:31.784Z,31.97
2019-05-01T10:03:00.458Z,32.98
2019-05-01T10:05:29.391Z,31.30
2019-05-01T10:08:00.107Z,30.52
2019-05-01T10:10:29.301Z,31.35
2019-05-01T10:12:59.343Z,31.87
2019-05-01T10:15:28.067Z,32.03
2019-05-01T10:17:56.735Z,31.73
2019-05-01T10:20:25.352Z,30.23
2019-05-01T10:22:53.978Z,27.25
2019-05-01T10:25:22.829Z,27.32
2019-05-01T10:27:52.977Z,27.58
2019-05-01T10:30:22.068Z,28.05
2019-05-01T10:32:52.810Z,28.80
2019-05-01T10:35:21.178Z,29.98
2019-05-01T10:37:49.815Z,30.20
2019-05-01T10:40:18.435Z,28.73
2019-05-01T10:42:47.098Z,26.12
2019-05-01T10:45:15.855Z,26.85
2019-05-01T10:47:44.578Z,25.08
2019-05-01T10:50:13.502Z,24.52
2019-05-01T10:52:42.270Z,24.05
2019-05-01T10:55:10.963Z,22.07
2019-05-01T10:57:40.149Z,22.70
2019-05-01T11:00:10.950Z,23.15
2019-05-01T11:02:39.617Z,23.40
2019-05-01T11:05:08.470Z,25.27
2019-05-01T11:07:37.132Z,24.47
2019-05-01T11:10:08.055Z,26.15
2019-05-01T11:12:36.721Z,26.37
2019-05-01T11:15:08.160Z,25.95
2019-05-01T11:17:36.844Z,25.92
2019-05-01T11:20:08.014Z,24.43
2019-05-01T11:22:36.741Z,24.10
2019-05-01T11:25:08.669Z,22.87
2019-05-01T11:27:37.276Z,18.77
2019-05-01T11:30:09.519Z,20.37
2019-05-01T11:32:38.183Z,20.02
2019-05-01T11:35:07.511Z,18.82
2019-05-01T11:37:36.172Z,22.17
2019-05-01T11:40:07.664Z,20.57
2019-05-01T11:42:36.345Z,21.17
2019-05-01T11:45:11.781Z,21.70
2019-05-01T11:47:40.400Z,23.87
2019-05-01T11:50:09.554Z,25.43
2019-05-01T11:52:38.282Z,28.12
2019-05-01T11:55:07.339Z,25.82
2019-05-01T11:57:36.082Z,24.35
2019-05-01T12:00:12.600Z,25.50
2019-05-01T12:02:41.336Z,21.60
2019-05-01T12:05:10.089Z,22.73
2019-05-01T12:07:38.754Z,21.65
2019-05-01T12:10:07.995Z,23.73
2019-05-01T12:12:36.897Z,22.20
2019-05-01T12:15:07.422Z,22.70
2019-05-01T12:17:38.831Z,21.50
2019-05-01T12:20:07.741Z,23.20
2019-05-01T12:22:36.407Z,21.07
2019-05-01T12:25:06.357Z,23.02
2019-05-01T12:27:35.018Z,22.00
2019-05-01T12:30:08.864Z,19.98
2019-05-01T12:32:37.553Z,19.70
2019-05-01T12:35:07.024Z,18.15
2019-05-01T12:37:35.687Z,18.42
2019-05-01T12:40:07.289Z,17.02
2019-05-01T12:42:36.089Z,16.50
2019-05-01T12:45:10.726Z,18.10
2019-05-01T12:47:39.662Z,15.32
2019-05-01T12:50:09.681Z,15.68
2019-05-01T12:52:38.418Z,14.53
2019-05-01T12:55:07.365Z,16.60
2019-05-01T12:57:36.031Z,17.82
2019-05-01T13:00:09.152Z,17.12
2019-05-01T13:02:38.143Z,17.27
2019-05-01T13:05:07.570Z,16.62
2019-05-01T13:07:36.234Z,17.07
2019-05-01T13:10:06.040Z,17.55
2019-05-01T13:12:34.659Z,17.10
2019-05-01T13:15:05.465Z,17.45
2019-05-01T13:17:34.075Z,16.37
2019-05-01T13:20:03.509Z,18.27
2019-05-01T13:22:32.124Z,16.62
2019-05-01T13:25:00.782Z,14.85
2019-05-01T13:27:29.396Z,16.05
2019-05-01T13:29:58.057Z,17.20
2019-05-01T13:32:26.678Z,16.10
2019-05-01T13:34:55.333Z,15.03
2019-05-01T13:37:24.116Z,14.38
2019-05-01T13:39:52.779Z,13.60
2019-05-01T13:42:21.516Z,13.98
2019-05-01T13:44:50.131Z,12.95
2019-05-01T13:47:18.793Z,11.63
2019-05-01T13:49:47.410Z,12.93
2019-05-01T13:52:16.078Z,12.70
2019-05-01T13:54:44.736Z,12.15
2019-05-01T13:57:13.347Z,13.53
2019-05-01T13:59:41.960Z,13.48
2019-05-01T14:02:10.793Z,12.45
2019-05-01T14:04:39.415Z,13.03
2019-05-01T14:07:16.364Z,12.50
2019-05-01T14:09:38.424Z,12.85
2019-05-01T14:12:07.093Z,13.62
2019-05-01T14:14:35.709Z,13.35
2019-05-01T14:17:04.376Z,11.53
2019-05-01T14:19:32.989Z,13.05
2019-05-01T14:22:01.654Z,12.35
2019-05-01T14:24:30.270Z,12.10
2019-05-01T14:26:58.935Z,12.05
2019-05-01T14:29:27.564Z,10.60
2019-05-01T14:31:56.217Z,10.68
2019-05-01T14:34:24.827Z,10.85
2019-05-01T14:36:53.487Z,11.12
2019-05-01T14:39:22.099Z,10.50
2019-05-01T14:41:50.751Z,9.93
2019-05-01T14:44:19.412Z,11.95
2019-05-01T14:46:48.030Z,10.35
2019-05-01T14:49:16.765Z,12.03
2019-05-01T14:51:45.379Z,11.00
2019-05-01T14:54:14.042Z,11.78
2019-05-01T14:56:43.434Z,9.80
2019-05-01T14:59:12.371Z,10.18
2019-05-01T15:01:41.030Z,10.25
2019-05-01T15:04:09.646Z,10.88
2019-05-01T15:06:38.304Z,11.25
2019-05-01T15:09:08.583Z,10.98
2019-05-01T15:11:37.250Z,10.70
2019-05-01T15:14:06.095Z,10.03
2019-05-01T15:16:34.822Z,9.65
2019-05-01T15:19:03.604Z,9.58
2019-05-01T15:21:32.262Z,9.10
2019-05-01T15:24:00.922Z,8.25
2019-05-01T15:26:29.581Z,8.33
2019-05-01T15:28:58.264Z,7.25
2019-05-01T15:31:26.929Z,7.10
2019-05-01T15:33:55.548Z,7.50
2019-05-01T15:36:24.200Z,7.17
2019-05-01T15:38:52.931Z,6.50
2019-05-01T15:41:21.643Z,6.85
2019-05-01T15:43:50.254Z,5.53
2019-05-01T15:46:18.919Z,5.03
2019-05-01T15:48:47.603Z,4.58
2019-05-01T15:51:16.211Z,4.83
2019-05-01T15:53:44.868Z,4.50
2019-05-01T15:56:13.480Z,4.35
2019-05-01T15:58:42.143Z,5.35
2019-05-01T16:01:10.757Z,5.25
2019-05-01T16:03:39.411Z,5.03
2019-05-01T16:06:08.425Z,4.45
2019-05-01T16:08:37.263Z,5.67
2019-05-01T16:11:05.945Z,5.87
2019-05-01T16:13:34.614Z,5.12
2019-05-01T16:16:03.580Z,4.22
2019-05-01T16:18:35.022Z,4.87
2019-05-01T16:21:03.918Z,4.10
2019-05-01T16:23:32.528Z,4.17
2019-05-01T16:26:01.185Z,6.40
2019-05-01T16:28:29.799Z,20.17
2019-05-01T16:30:58.410Z,8.45
2019-05-01T16:33:27.072Z,5.15
2019-05-01T16:35:55.692Z,15.83
2019-05-01T16:38:24.353Z,8.28
2019-05-01T16:40:53.013Z,17.25
2019-05-01T16:43:21.630Z,47.83
2019-05-01T16:45:50.294Z,37.60
2019-05-01T16:48:19.140Z,10.43
2019-05-01T16:50:47.796Z,7.72
2019-05-01T16:53:16.408Z,9.70
2019-05-01T16:55:45.236Z,8.63
2019-05-01T16:58:13.853Z,22.20
2019-05-01T17:00:57.920Z,30.48
2019-05-01T17:03:26.534Z,11.97
2019-05-01T17:05:55.313Z,4.65
2019-05-01T17:08:35.559Z,7.53
2019-05-01T17:10:54.584Z,6.20
2019-05-01T17:13:23.481Z,3.75
2019-05-01T17:15:52.173Z,6.47
2019-05-01T17:18:20.865Z,4.30
2019-05-01T17:20:49.523Z,5.58
2019-05-01T17:23:18.134Z,3.52
2019-05-01T17:25:46.798Z,4.25
2019-05-01T17:28:15.407Z,2.85
2019-05-01T17:30:47.889Z,3.52
2019-05-01T17:33:20.806Z,2.80
2019-05-01T17:35:46.950Z,27.20
2019-05-01T17:38:15.603Z,5.55
2019-05-01T17:40:47.474Z,3.12
2019-05-01T17:43:15.506Z,7.20
2019-05-01T17:45:44.438Z,4.03
2019-05-01T17:48:13.047Z,2.37
2019-05-01T17:50:41.660Z,2.92
2019-05-01T17:53:10.481Z,2.22
2019-05-01T17:55:39.092Z,2.17
2019-05-01T17:58:07.819Z,3.52
2019-05-01T18:00:36.434Z,2.85
2019-05-01T18:03:05.631Z,5.08
2019-05-01T18:05:34.298Z,3.52
2019-05-01T18:08:02.908Z,7.12
2019-05-01T18:10:34.053Z,3.70
2019-05-01T18:13:01.909Z,3.65
2019-05-01T18:15:30.525Z,7.67
2019-05-01T18:17:59.180Z,4.17
2019-05-01T18:20:27.842Z,2.92
2019-05-01T18:22:56.620Z,3.30
2019-05-01T18:25:28.119Z,1.95
2019-05-01T18:27:55.678Z,2.65
2019-05-01T18:30:24.442Z,2.98
2019-05-01T18:32:53.178Z,2.62
2019-05-01T18:35:25.676Z,1.62
2019-05-01T18:37:54.368Z,2.70
2019-05-01T18:40:23.399Z,3.37
2019-05-01T18:42:52.003Z,1.80
2019-05-01T18:45:49.307Z,4.62
2019-05-01T18:48:18.728Z,1.92
2019-05-01T18:50:52.759Z,2.10
2019-05-01T18:53:18.060Z,2.60
2019-05-01T18:55:46.717Z,2.95
2019-05-01T18:58:15.378Z,2.60
2019-05-01T19:00:44.157Z,2.65
2019-05-01T19:03:12.829Z,1.90
2019-05-01T19:05:43.189Z,2.00
2019-05-01T19:08:12.047Z,1.82
2019-05-01T19:10:40.942Z,1.67
2019-05-01T19:13:09.555Z,2.45
2019-05-01T19:15:38.267Z,4.03
2019-05-01T19:18:07.116Z,2.00
2019-05-01T19:20:35.941Z,2.27
2019-05-01T19:23:04.835Z,2.10
2019-05-01T19:25:33.481Z,2.22
2019-05-01T19:28:02.093Z,2.85
2019-05-01T19:30:30.812Z,2.85
2019-05-01T19:32:59.468Z,2.47
2019-05-01T19:35:29.000Z,1.92
2019-05-01T19:37:59.061Z,4.17
2019-05-01T19:40:30.518Z,2.75
2019-05-01T19:43:00.169Z,2.62
2019-05-01T19:45:29.210Z,2.55
2019-05-01T19:47:57.921Z,2.52
2019-05-01T19:50:26.552Z,3.10
2019-05-01T19:52:55.374Z,2.70
2019-05-01T19:55:24.053Z,3.15
2019-05-01T19:57:52.714Z,3.47
2019-05-01T20:00:45.400Z,2.60
2019-05-01T20:03:14.111Z,2.95
2019-05-01T20:05:42.893Z,3.47
2019-05-01T20:08:11.503Z,2.22
2019-05-01T20:10:40.172Z,4.92
2019-05-01T20:13:12.073Z,2.70
2019-05-01T20:15:39.188Z,3.67
2019-05-01T20:18:07.853Z,2.90
2019-05-01T20:20:36.626Z,4.08
2019-05-01T20:23:05.423Z,3.87
2019-05-01T20:25:34.099Z,4.28
2019-05-01T20:28:02.896Z,4.08
2019-05-01T20:30:31.563Z,4.95
2019-05-01T20:33:02.220Z,3.95
2019-05-01T20:35:34.137Z,4.20
2019-05-01T20:38:01.689Z,4.90
2019-05-01T20:40:30.420Z,4.20
2019-05-01T20:43:00.984Z,5.25
2019-05-01T20:45:29.596Z,4.50
2019-05-01T20:47:58.263Z,4.12
2019-05-01T20:50:26.870Z,5.42
2019-05-01T20:52:55.533Z,3.77
2019-05-01T20:55:24.199Z,3.37
2019-05-01T20:57:52.807Z,4.30
2019-05-01T21:00:23.003Z,3.67
2019-05-01T21:02:51.731Z,4.45
2019-05-01T21:05:20.387Z,4.28
2019-05-01T21:07:52.082Z,4.70
2019-05-01T21:10:25.107Z,3.42
2019-05-01T21:12:49.800Z,3.67
2019-05-01T21:15:19.952Z,4.35
2019-05-01T21:17:49.693Z,3.85
2019-05-01T21:20:19.273Z,4.42
2019-05-01T21:22:47.931Z,3.60
2019-05-01T21:25:16.593Z,4.50
2019-05-01T21:27:45.251Z,4.75
2019-05-01T21:30:14.226Z,4.50
2019-05-01T21:32:44.299Z,4.55
2019-05-01T21:35:13.760Z,4.20
2019-05-01T21:37:42.779Z,4.30
2019-05-01T21:40:12.869Z,3.72
2019-05-01T21:42:42.904Z,4.53
2019-05-01T21:45:12.812Z,4.90
2019-05-01T21:47:42.674Z,4.30
2019-05-01T21:50:13.334Z,5.05
2019-05-01T21:52:43.775Z,4.25
2019-05-01T21:55:12.597Z,4.37
2019-05-01T21:57:41.263Z,4.42
2019-05-01T22:00:12.285Z,4.05
2019-05-01T22:02:41.696Z,4.78
2019-05-01T22:05:11.831Z,4.05
2019-05-01T22:07:40.494Z,4.10
2019-05-01T22:10:10.115Z,3.85
2019-05-01T22:12:38.721Z,4.28
2019-05-01T22:15:11.065Z,5.20
2019-05-01T22:17:38.915Z,4.10
2019-05-01T22:20:08.031Z,4.85
2019-05-01T22:22:38.836Z,4.17
2019-05-01T22:25:08.065Z,5.40
2019-05-01T22:27:36.857Z,5.92
2019-05-01T22:30:10.942Z,4.53
2019-05-01T22:32:39.562Z,5.28
2019-05-01T22:35:10.800Z,4.08
2019-05-01T22:37:39.479Z,3.87
2019-05-01T22:40:08.577Z,4.65
2019-05-01T22:42:37.188Z,4.80
2019-05-01T22:45:19.275Z,4.55
2019-05-01T22:47:50.742Z,4.55
2019-05-01T22:50:19.053Z,4.22
2019-05-01T22:52:47.665Z,4.05
2019-05-01T22:55:20.426Z,4.62
2019-05-01T22:57:46.779Z,4.95
2019-05-01T23:00:25.706Z,4.30
2019-05-01T23:02:54.368Z,5.50
2019-05-01T23:05:27.610Z,5.00
2019-05-01T23:07:53.434Z,4.53
2019-05-01T23:10:22.163Z,4.85
2019-05-01T23:12:50.772Z,4.58
2019-05-01T23:15:19.443Z,4.12
2019-05-01T23:17:48.724Z,5.70
2019-05-01T23:20:17.397Z,4.62
2019-05-01T23:22:46.061Z,4.75
2019-05-01T23:25:15.356Z,5.67
2019-05-01T23:27:44.037Z,4.95
2019-05-01T23:30:13.903Z,4.40
2019-05-01T23:32:42.589Z,5.00
2019-05-01T23:35:11.689Z,4.60
2019-05-01T23:37:40.353Z,3.98
2019-05-01T23:40:10.987Z,4.85
2019-05-01T23:42:43.345Z,5.05
2019-05-01T23:45:11.752Z,4.87
2019-05-01T23:47:40.407Z,5.58
2019-05-01T23:50:09.621Z,6.67
2019-05-01T23:52:38.754Z,6.15
2019-05-01T23:55:08.723Z,8.25
2019-05-01T23:57:37.335Z,7.35
